sensor_id;sensor_type;location;lat;lon;timestamp;temperature;humidity
3037;DHT22;1528;52.550;13.408;2022-10-17T00:00:41;16.10;34.30
3037;DHT22;1528;52.550;13.408;2022-10-17T00:03:27;16.10;34.40
3037;DHT22;1528;52.550;13.408;2022-10-17T00:06:14;16.10;34.20
3037;DHT22;1528;52.550;13.408;2022-10-17T00:08:59;16.20;34.30
3037;DHT22;1528;52.550;13.408;2022-10-17T00:11:45;16.20;34.30
3037;DHT22;1528;52.550;13.408;2022-10-17T00:14:30;16.20;34.10
3037;DHT22;1528;52.550;13.408;2022-10-17T00:17:17;16.20;33.90
3037;DHT22;1528;52.550;13.408;2022-10-17T00:20:03;16.20;34.10
3037;DHT22;1528;52.550;13.408;2022-10-17T00:22:49;16.20;34.10
3037;DHT22;1528;52.550;13.408;2022-10-17T00:25:34;16.20;34.10
3037;DHT22;1528;52.550;13.408;2022-10-17T00:28:20;16.30;33.90
3037;DHT22;1528;52.550;13.408;2022-10-17T00:31:06;16.30;34.10
3037;DHT22;1528;52.550;13.408;2022-10-17T00:33:53;16.30;34.20
3037;DHT22;1528;52.550;13.408;2022-10-17T00:36:38;16.30;34.60
3037;DHT22;1528;52.550;13.408;2022-10-17T00:39:24;16.20;34.30
3037;DHT22;1528;52.550;13.408;2022-10-17T00:42:11;16.20;34.40
3037;DHT22;1528;52.550;13.408;2022-10-17T00:45:04;16.20;34.20
3037;DHT22;1528;52.550;13.408;2022-10-17T00:47:53;16.20;34.50
3037;DHT22;1528;52.550;13.408;2022-10-17T00:50:43;16.20;34.40
3037;DHT22;1528;52.550;13.408;2022-10-17T00:53:30;16.20;34.40
3037;DHT22;1528;52.550;13.408;2022-10-17T00:56:17;16.20;34.50
3037;DHT22;1528;52.550;13.408;2022-10-17T00:59:03;16.20;34.60
3037;DHT22;1528;52.550;13.408;2022-10-17T01:01:53;16.10;34.70
3037;DHT22;1528;52.550;13.408;2022-10-17T01:04:43;16.20;34.80
3037;DHT22;1528;52.550;13.408;2022-10-17T01:07:30;16.20;34.70
3037;DHT22;1528;52.550;13.408;2022-10-17T01:10:16;16.10;34.60
3037;DHT22;1528;52.550;13.408;2022-10-17T01:13:09;16.40;34.80
3037;DHT22;1528;52.550;13.408;2022-10-17T01:16:04;16.20;34.80
3037;DHT22;1528;52.550;13.408;2022-10-17T01:19:01;16.20;35.10
3037;DHT22;1528;52.550;13.408;2022-10-17T01:21:50;16.10;35.10
3037;DHT22;1528;52.550;13.408;2022-10-17T01:24:47;16.10;35.40
3037;DHT22;1528;52.550;13.408;2022-10-17T01:27:55;16.10;35.60
3037;DHT22;1528;52.550;13.408;2022-10-17T01:31:03;15.90;35.90
3037;DHT22;1528;52.550;13.408;2022-10-17T01:33:59;16.10;36.00
3037;DHT22;1528;52.550;13.408;2022-10-17T01:36:49;15.90;36.10
3037;DHT22;1528;52.550;13.408;2022-10-17T01:39:40;15.90;36.10
3037;DHT22;1528;52.550;13.408;2022-10-17T01:42:31;15.80;36.10
3037;DHT22;1528;52.550;13.408;2022-10-17T01:45:22;15.90;36.50
3037;DHT22;1528;52.550;13.408;2022-10-17T01:48:15;15.90;36.00
3037;DHT22;1528;52.550;13.408;2022-10-17T01:51:06;15.90;36.20
3037;DHT22;1528;52.550;13.408;2022-10-17T01:53:55;15.80;36.80
3037;DHT22;1528;52.550;13.408;2022-10-17T01:56:44;15.80;37.70
3037;DHT22;1528;52.550;13.408;2022-10-17T01:59:35;15.80;37.70
3037;DHT22;1528;52.550;13.408;2022-10-17T02:02:23;15.70;37.80
3037;DHT22;1528;52.550;13.408;2022-10-17T02:05:10;15.70;38.50
3037;DHT22;1528;52.550;13.408;2022-10-17T02:07:55;15.70;38.20
3037;DHT22;1528;52.550;13.408;2022-10-17T02:10:45;15.70;39.00
3037;DHT22;1528;52.550;13.408;2022-10-17T02:13:41;15.70;39.60
3037;DHT22;1528;52.550;13.408;2022-10-17T02:16:34;15.80;40.10
3037;DHT22;1528;52.550;13.408;2022-10-17T02:19:33;15.80;41.00
3037;DHT22;1528;52.550;13.408;2022-10-17T02:22:26;15.70;40.40
3037;DHT22;1528;52.550;13.408;2022-10-17T02:25:22;15.70;40.60
3037;DHT22;1528;52.550;13.408;2022-10-17T02:28:18;15.70;41.30
3037;DHT22;1528;52.550;13.408;2022-10-17T02:31:08;15.70;41.80
3037;DHT22;1528;52.550;13.408;2022-10-17T02:33:59;15.70;42.90
3037;DHT22;1528;52.550;13.408;2022-10-17T02:36:50;15.80;42.30
3037;DHT22;1528;52.550;13.408;2022-10-17T02:39:39;15.80;42.30
3037;DHT22;1528;52.550;13.408;2022-10-17T02:42:26;15.90;43.00
3037;DHT22;1528;52.550;13.408;2022-10-17T02:45:13;16.00;43.30
3037;DHT22;1528;52.550;13.408;2022-10-17T02:48:02;16.00;42.50
3037;DHT22;1528;52.550;13.408;2022-10-17T02:51:01;16.00;42.90
3037;DHT22;1528;52.550;13.408;2022-10-17T02:53:53;15.90;42.60
3037;DHT22;1528;52.550;13.408;2022-10-17T02:56:47;16.10;43.20
3037;DHT22;1528;52.550;13.408;2022-10-17T02:59:36;16.10;43.50
3037;DHT22;1528;52.550;13.408;2022-10-17T03:02:24;16.10;43.20
3037;DHT22;1528;52.550;13.408;2022-10-17T03:05:11;16.10;42.90
3037;DHT22;1528;52.550;13.408;2022-10-17T03:07:57;16.10;42.70
3037;DHT22;1528;52.550;13.408;2022-10-17T03:10:42;16.10;43.30
3037;DHT22;1528;52.550;13.408;2022-10-17T03:13:29;16.00;43.40
3037;DHT22;1528;52.550;13.408;2022-10-17T03:16:15;15.90;43.90
3037;DHT22;1528;52.550;13.408;2022-10-17T03:19:01;16.00;43.60
3037;DHT22;1528;52.550;13.408;2022-10-17T03:21:46;16.00;43.50
3037;DHT22;1528;52.550;13.408;2022-10-17T03:24:32;16.00;43.60
3037;DHT22;1528;52.550;13.408;2022-10-17T03:27:18;16.00;43.70
3037;DHT22;1528;52.550;13.408;2022-10-17T03:30:06;16.00;43.70
3037;DHT22;1528;52.550;13.408;2022-10-17T03:32:52;16.10;43.60
3037;DHT22;1528;52.550;13.408;2022-10-17T03:35:38;16.00;43.90
3037;DHT22;1528;52.550;13.408;2022-10-17T03:38:23;16.00;43.40
3037;DHT22;1528;52.550;13.408;2022-10-17T03:41:12;16.10;43.80
3037;DHT22;1528;52.550;13.408;2022-10-17T03:43:58;16.00;43.70
3037;DHT22;1528;52.550;13.408;2022-10-17T03:46:45;16.00;44.20
3037;DHT22;1528;52.550;13.408;2022-10-17T03:49:30;15.90;44.40
3037;DHT22;1528;52.550;13.408;2022-10-17T03:52:16;15.90;44.30
3037;DHT22;1528;52.550;13.408;2022-10-17T03:55:01;15.90;44.70
3037;DHT22;1528;52.550;13.408;2022-10-17T03:57:47;15.90;45.30
3037;DHT22;1528;52.550;13.408;2022-10-17T04:00:35;16.00;44.70
3037;DHT22;1528;52.550;13.408;2022-10-17T04:03:21;16.00;44.80
3037;DHT22;1528;52.550;13.408;2022-10-17T04:06:10;16.00;44.50
3037;DHT22;1528;52.550;13.408;2022-10-17T04:08:55;16.10;44.80
3037;DHT22;1528;52.550;13.408;2022-10-17T04:11:41;16.00;44.80
3037;DHT22;1528;52.550;13.408;2022-10-17T04:14:26;15.90;44.90
3037;DHT22;1528;52.550;13.408;2022-10-17T04:17:12;15.90;45.10
3037;DHT22;1528;52.550;13.408;2022-10-17T04:19:59;15.80;45.20
3037;DHT22;1528;52.550;13.408;2022-10-17T04:22:44;15.90;45.80
3037;DHT22;1528;52.550;13.408;2022-10-17T04:25:30;16.00;45.70
3037;DHT22;1528;52.550;13.408;2022-10-17T04:28:15;15.90;45.70
3037;DHT22;1528;52.550;13.408;2022-10-17T04:31:03;15.80;45.70
3037;DHT22;1528;52.550;13.408;2022-10-17T04:33:49;15.80;46.30
3037;DHT22;1528;52.550;13.408;2022-10-17T04:36:36;15.80;45.80
3037;DHT22;1528;52.550;13.408;2022-10-17T04:39:22;15.80;46.40
3037;DHT22;1528;52.550;13.408;2022-10-17T04:42:07;15.80;46.20
3037;DHT22;1528;52.550;13.408;2022-10-17T04:44:53;15.80;46.50
3037;DHT22;1528;52.550;13.408;2022-10-17T04:47:38;15.80;46.40
3037;DHT22;1528;52.550;13.408;2022-10-17T04:50:24;15.70;47.00
3037;DHT22;1528;52.550;13.408;2022-10-17T04:53:10;15.70;47.20
3037;DHT22;1528;52.550;13.408;2022-10-17T04:55:56;15.80;46.90
3037;DHT22;1528;52.550;13.408;2022-10-17T04:58:42;15.60;47.30
3037;DHT22;1528;52.550;13.408;2022-10-17T05:01:28;15.70;47.10
3037;DHT22;1528;52.550;13.408;2022-10-17T05:04:13;15.70;47.80
3037;DHT22;1528;52.550;13.408;2022-10-17T05:06:59;15.70;46.90
3037;DHT22;1528;52.550;13.408;2022-10-17T05:09:46;15.70;47.40
3037;DHT22;1528;52.550;13.408;2022-10-17T05:12:31;15.70;47.20
3037;DHT22;1528;52.550;13.408;2022-10-17T05:15:17;15.70;47.10
3037;DHT22;1528;52.550;13.408;2022-10-17T05:18:03;15.70;47.50
3037;DHT22;1528;52.550;13.408;2022-10-17T05:20:49;15.60;46.90
3037;DHT22;1528;52.550;13.408;2022-10-17T05:23:34;15.60;47.30
3037;DHT22;1528;52.550;13.408;2022-10-17T05:26:22;15.70;47.20
3037;DHT22;1528;52.550;13.408;2022-10-17T05:29:08;15.60;47.50
3037;DHT22;1528;52.550;13.408;2022-10-17T05:31:53;15.60;47.50
3037;DHT22;1528;52.550;13.408;2022-10-17T05:34:39;15.70;48.10
3037;DHT22;1528;52.550;13.408;2022-10-17T05:37:25;15.60;47.30
3037;DHT22;1528;52.550;13.408;2022-10-17T05:40:11;15.60;47.50
3037;DHT22;1528;52.550;13.408;2022-10-17T05:42:58;15.60;47.60
3037;DHT22;1528;52.550;13.408;2022-10-17T05:45:43;15.60;47.60
3037;DHT22;1528;52.550;13.408;2022-10-17T05:48:32;15.60;47.20
3037;DHT22;1528;52.550;13.408;2022-10-17T05:51:18;15.60;47.20
3037;DHT22;1528;52.550;13.408;2022-10-17T05:54:04;15.60;47.60
3037;DHT22;1528;52.550;13.408;2022-10-17T05:56:50;15.70;47.50
3037;DHT22;1528;52.550;13.408;2022-10-17T05:59:37;15.60;47.30
3037;DHT22;1528;52.550;13.408;2022-10-17T06:02:22;15.60;47.70
3037;DHT22;1528;52.550;13.408;2022-10-17T06:05:08;15.60;47.40
3037;DHT22;1528;52.550;13.408;2022-10-17T06:07:53;15.60;47.50
3037;DHT22;1528;52.550;13.408;2022-10-17T06:10:39;15.70;47.30
3037;DHT22;1528;52.550;13.408;2022-10-17T06:13:26;15.70;47.80
3037;DHT22;1528;52.550;13.408;2022-10-17T06:16:12;15.60;47.60
3037;DHT22;1528;52.550;13.408;2022-10-17T06:18:58;15.80;47.40
3037;DHT22;1528;52.550;13.408;2022-10-17T06:21:43;15.80;47.10
3037;DHT22;1528;52.550;13.408;2022-10-17T06:24:29;15.80;47.50
3037;DHT22;1528;52.550;13.408;2022-10-17T06:27:14;15.70;47.60
3037;DHT22;1528;52.550;13.408;2022-10-17T06:30:00;15.80;47.60
3037;DHT22;1528;52.550;13.408;2022-10-17T06:32:47;15.90;47.60
3037;DHT22;1528;52.550;13.408;2022-10-17T06:35:32;15.80;47.40
3037;DHT22;1528;52.550;13.408;2022-10-17T06:38:18;15.80;47.30
3037;DHT22;1528;52.550;13.408;2022-10-17T06:41:04;15.90;47.50
3037;DHT22;1528;52.550;13.408;2022-10-17T06:43:51;16.00;47.20
3037;DHT22;1528;52.550;13.408;2022-10-17T06:46:37;15.90;47.30
3037;DHT22;1528;52.550;13.408;2022-10-17T06:49:25;16.00;47.50
3037;DHT22;1528;52.550;13.408;2022-10-17T06:52:10;16.00;47.80
3037;DHT22;1528;52.550;13.408;2022-10-17T06:54:56;16.10;47.30
3037;DHT22;1528;52.550;13.408;2022-10-17T06:57:41;16.20;46.90
3037;DHT22;1528;52.550;13.408;2022-10-17T07:00:27;16.30;46.50
3037;DHT22;1528;52.550;13.408;2022-10-17T07:03:12;16.40;46.50
3037;DHT22;1528;52.550;13.408;2022-10-17T07:05:59;16.40;46.10
3037;DHT22;1528;52.550;13.408;2022-10-17T07:08:47;16.40;46.20
3037;DHT22;1528;52.550;13.408;2022-10-17T07:11:33;16.40;46.00
3037;DHT22;1528;52.550;13.408;2022-10-17T07:14:19;16.50;46.00
3037;DHT22;1528;52.550;13.408;2022-10-17T07:17:04;16.70;45.40
3037;DHT22;1528;52.550;13.408;2022-10-17T07:19:49;16.70;45.00
3037;DHT22;1528;52.550;13.408;2022-10-17T07:22:36;16.80;45.20
3037;DHT22;1528;52.550;13.408;2022-10-17T07:25:22;16.80;45.00
3037;DHT22;1528;52.550;13.408;2022-10-17T07:28:07;17.00;44.10
3037;DHT22;1528;52.550;13.408;2022-10-17T07:30:53;17.00;44.00
3037;DHT22;1528;52.550;13.408;2022-10-17T07:33:39;17.00;44.30
3037;DHT22;1528;52.550;13.408;2022-10-17T07:36:24;17.00;44.20
3037;DHT22;1528;52.550;13.408;2022-10-17T07:39:12;17.10;43.70
3037;DHT22;1528;52.550;13.408;2022-10-17T07:41:57;17.20;43.70
3037;DHT22;1528;52.550;13.408;2022-10-17T07:44:43;17.20;43.30
3037;DHT22;1528;52.550;13.408;2022-10-17T07:47:30;17.20;43.60
3037;DHT22;1528;52.550;13.408;2022-10-17T07:50:18;17.30;43.30
3037;DHT22;1528;52.550;13.408;2022-10-17T07:53:04;17.30;43.20
3037;DHT22;1528;52.550;13.408;2022-10-17T07:55:51;17.30;43.10
3037;DHT22;1528;52.550;13.408;2022-10-17T07:58:37;17.30;43.10
3037;DHT22;1528;52.550;13.408;2022-10-17T08:01:22;17.50;42.60
3037;DHT22;1528;52.550;13.408;2022-10-17T08:04:08;17.60;42.30
3037;DHT22;1528;52.550;13.408;2022-10-17T08:06:54;17.70;42.10
3037;DHT22;1528;52.550;13.408;2022-10-17T08:09:39;17.80;41.30
3037;DHT22;1528;52.550;13.408;2022-10-17T08:12:26;17.80;41.70
3037;DHT22;1528;52.550;13.408;2022-10-17T08:15:14;18.00;41.10
3037;DHT22;1528;52.550;13.408;2022-10-17T08:18:00;17.90;41.20
3037;DHT22;1528;52.550;13.408;2022-10-17T08:20:46;17.90;41.40
3037;DHT22;1528;52.550;13.408;2022-10-17T08:23:31;18.10;40.90
3037;DHT22;1528;52.550;13.408;2022-10-17T08:26:17;18.10;41.00
3037;DHT22;1528;52.550;13.408;2022-10-17T08:29:04;18.30;40.30
3037;DHT22;1528;52.550;13.408;2022-10-17T08:31:49;18.40;40.20
3037;DHT22;1528;52.550;13.408;2022-10-17T08:34:36;18.40;40.30
3037;DHT22;1528;52.550;13.408;2022-10-17T08:37:21;18.40;40.10
3037;DHT22;1528;52.550;13.408;2022-10-17T08:40:12;18.50;40.00
3037;DHT22;1528;52.550;13.408;2022-10-17T08:43:20;18.60;39.50
3037;DHT22;1528;52.550;13.408;2022-10-17T08:46:10;18.70;39.20
3037;DHT22;1528;52.550;13.408;2022-10-17T08:48:58;18.80;39.00
3037;DHT22;1528;52.550;13.408;2022-10-17T08:51:50;18.90;38.90
3037;DHT22;1528;52.550;13.408;2022-10-17T08:54:40;19.00;38.60
3037;DHT22;1528;52.550;13.408;2022-10-17T08:57:29;19.10;38.60
3037;DHT22;1528;52.550;13.408;2022-10-17T09:00:18;19.20;38.30
3037;DHT22;1528;52.550;13.408;2022-10-17T09:03:14;19.20;38.30
3037;DHT22;1528;52.550;13.408;2022-10-17T09:06:12;19.30;38.50
3037;DHT22;1528;52.550;13.408;2022-10-17T09:09:18;19.30;38.00
3037;DHT22;1528;52.550;13.408;2022-10-17T09:12:14;19.40;38.00
3037;DHT22;1528;52.550;13.408;2022-10-17T09:15:27;19.40;38.40
3037;DHT22;1528;52.550;13.408;2022-10-17T09:18:21;19.60;37.50
3037;DHT22;1528;52.550;13.408;2022-10-17T09:21:18;19.50;37.60
3037;DHT22;1528;52.550;13.408;2022-10-17T09:24:12;19.70;37.00
3037;DHT22;1528;52.550;13.408;2022-10-17T09:26:58;19.90;36.70
3037;DHT22;1528;52.550;13.408;2022-10-17T09:29:45;20.00;36.90
3037;DHT22;1528;52.550;13.408;2022-10-17T09:32:33;20.10;35.90
3037;DHT22;1528;52.550;13.408;2022-10-17T09:35:21;20.10;36.30
3037;DHT22;1528;52.550;13.408;2022-10-17T09:38:13;20.20;35.50
3037;DHT22;1528;52.550;13.408;2022-10-17T09:41:00;20.40;35.10
3037;DHT22;1528;52.550;13.408;2022-10-17T09:43:46;20.40;34.80
3037;DHT22;1528;52.550;13.408;2022-10-17T09:46:35;20.50;34.50
3037;DHT22;1528;52.550;13.408;2022-10-17T09:49:27;20.60;34.30
3037;DHT22;1528;52.550;13.408;2022-10-17T09:52:16;20.80;33.70
3037;DHT22;1528;52.550;13.408;2022-10-17T09:55:05;20.80;33.70
3037;DHT22;1528;52.550;13.408;2022-10-17T09:57:53;20.90;33.10
3037;DHT22;1528;52.550;13.408;2022-10-17T10:00:41;21.00;32.80
3037;DHT22;1528;52.550;13.408;2022-10-17T10:03:26;21.10;33.00
3037;DHT22;1528;52.550;13.408;2022-10-17T10:06:14;21.30;32.10
3037;DHT22;1528;52.550;13.408;2022-10-17T10:09:03;21.30;32.60
3037;DHT22;1528;52.550;13.408;2022-10-17T10:11:51;21.40;32.50
3037;DHT22;1528;52.550;13.408;2022-10-17T10:14:38;21.60;31.60
3037;DHT22;1528;52.550;13.408;2022-10-17T10:17:27;21.80;31.70
3037;DHT22;1528;52.550;13.408;2022-10-17T10:20:32;21.80;31.60
3037;DHT22;1528;52.550;13.408;2022-10-17T10:23:18;22.10;30.40
3037;DHT22;1528;52.550;13.408;2022-10-17T10:26:20;22.20;30.00
3037;DHT22;1528;52.550;13.408;2022-10-17T10:29:19;22.40;29.80
3037;DHT22;1528;52.550;13.408;2022-10-17T10:32:08;22.40;29.30
3037;DHT22;1528;52.550;13.408;2022-10-17T10:34:55;22.50;29.60
3037;DHT22;1528;52.550;13.408;2022-10-17T10:37:43;22.50;29.30
3037;DHT22;1528;52.550;13.408;2022-10-17T10:40:31;22.60;28.70
3037;DHT22;1528;52.550;13.408;2022-10-17T10:43:26;22.60;28.60
3037;DHT22;1528;52.550;13.408;2022-10-17T10:46:18;22.70;28.80
3037;DHT22;1528;52.550;13.408;2022-10-17T10:49:04;22.70;28.80
3037;DHT22;1528;52.550;13.408;2022-10-17T10:52:14;22.80;28.20
3037;DHT22;1528;52.550;13.408;2022-10-17T10:55:14;22.90;28.00
3037;DHT22;1528;52.550;13.408;2022-10-17T10:58:17;23.00;28.00
3037;DHT22;1528;52.550;13.408;2022-10-17T11:01:12;23.00;28.20
3037;DHT22;1528;52.550;13.408;2022-10-17T11:04:09;23.20;27.40
3037;DHT22;1528;52.550;13.408;2022-10-17T11:07:00;23.20;27.70
3037;DHT22;1528;52.550;13.408;2022-10-17T11:09:53;23.30;27.10
3037;DHT22;1528;52.550;13.408;2022-10-17T11:12:44;23.40;27.10
3037;DHT22;1528;52.550;13.408;2022-10-17T11:15:35;23.40;27.60
3037;DHT22;1528;52.550;13.408;2022-10-17T11:18:26;23.60;26.20
3037;DHT22;1528;52.550;13.408;2022-10-17T11:21:15;23.60;26.10
3037;DHT22;1528;52.550;13.408;2022-10-17T11:24:09;23.70;26.00
3037;DHT22;1528;52.550;13.408;2022-10-17T11:26:59;23.60;25.90
3037;DHT22;1528;52.550;13.408;2022-10-17T11:29:44;23.60;26.00
3037;DHT22;1528;52.550;13.408;2022-10-17T11:32:35;23.70;26.10
3037;DHT22;1528;52.550;13.408;2022-10-17T11:35:26;23.70;25.70
3037;DHT22;1528;52.550;13.408;2022-10-17T11:38:16;23.90;25.40
3037;DHT22;1528;52.550;13.408;2022-10-17T11:41:03;24.00;24.90
3037;DHT22;1528;52.550;13.408;2022-10-17T11:43:53;24.10;24.50
3037;DHT22;1528;52.550;13.408;2022-10-17T11:46:41;24.10;24.40
3037;DHT22;1528;52.550;13.408;2022-10-17T11:49:31;24.20;24.20
3037;DHT22;1528;52.550;13.408;2022-10-17T11:52:29;24.30;24.20
3037;DHT22;1528;52.550;13.408;2022-10-17T11:55:21;24.40;24.00
3037;DHT22;1528;52.550;13.408;2022-10-17T11:58:33;24.80;23.30
3037;DHT22;1528;52.550;13.408;2022-10-17T12:01:26;24.70;22.90
3037;DHT22;1528;52.550;13.408;2022-10-17T12:04:24;24.80;22.80
3037;DHT22;1528;52.550;13.408;2022-10-17T12:07:15;24.80;22.60
3037;DHT22;1528;52.550;13.408;2022-10-17T12:10:12;24.90;22.50
3037;DHT22;1528;52.550;13.408;2022-10-17T12:16:45;24.90;22.60
3037;DHT22;1528;52.550;13.408;2022-10-17T12:19:33;25.00;22.10
3037;DHT22;1528;52.550;13.408;2022-10-17T12:22:20;24.90;22.80
3037;DHT22;1528;52.550;13.408;2022-10-17T12:25:16;24.90;22.80
3037;DHT22;1528;52.550;13.408;2022-10-17T12:28:14;24.90;22.00
3037;DHT22;1528;52.550;13.408;2022-10-17T12:31:01;24.90;21.70
3037;DHT22;1528;52.550;13.408;2022-10-17T12:33:50;25.00;22.10
3037;DHT22;1528;52.550;13.408;2022-10-17T12:36:37;25.00;22.40
3037;DHT22;1528;52.550;13.408;2022-10-17T12:39:49;25.00;22.40
3037;DHT22;1528;52.550;13.408;2022-10-17T12:42:49;25.00;22.70
3037;DHT22;1528;52.550;13.408;2022-10-17T12:45:46;25.00;22.30
3037;DHT22;1528;52.550;13.408;2022-10-17T12:49:18;25.00;22.20
3037;DHT22;1528;52.550;13.408;2022-10-17T12:55:29;25.10;22.00
3037;DHT22;1528;52.550;13.408;2022-10-17T12:58:16;25.20;21.70
3037;DHT22;1528;52.550;13.408;2022-10-17T13:01:03;25.20;21.70
3037;DHT22;1528;52.550;13.408;2022-10-17T13:03:52;25.20;21.40
3037;DHT22;1528;52.550;13.408;2022-10-17T13:06:44;25.40;21.40
3037;DHT22;1528;52.550;13.408;2022-10-17T13:09:32;25.40;21.50
3037;DHT22;1528;52.550;13.408;2022-10-17T13:12:22;25.40;21.30
3037;DHT22;1528;52.550;13.408;2022-10-17T13:15:15;25.40;21.10
3037;DHT22;1528;52.550;13.408;2022-10-17T13:18:02;25.50;20.90
3037;DHT22;1528;52.550;13.408;2022-10-17T13:20:56;25.50;21.00
3037;DHT22;1528;52.550;13.408;2022-10-17T13:23:42;25.60;21.00
3037;DHT22;1528;52.550;13.408;2022-10-17T13:26:28;25.70;20.50
3037;DHT22;1528;52.550;13.408;2022-10-17T13:29:14;26.00;20.20
3037;DHT22;1528;52.550;13.408;2022-10-17T13:32:02;25.90;20.40
3037;DHT22;1528;52.550;13.408;2022-10-17T13:35:03;25.90;20.50
3037;DHT22;1528;52.550;13.408;2022-10-17T13:37:49;25.90;20.50
3037;DHT22;1528;52.550;13.408;2022-10-17T13:40:40;26.00;20.20
3037;DHT22;1528;52.550;13.408;2022-10-17T13:43:25;26.10;19.80
3037;DHT22;1528;52.550;13.408;2022-10-17T13:46:16;26.00;20.30
3037;DHT22;1528;52.550;13.408;2022-10-17T13:49:11;26.00;20.10
3037;DHT22;1528;52.550;13.408;2022-10-17T13:52:01;25.90;20.40
3037;DHT22;1528;52.550;13.408;2022-10-17T13:54:49;25.80;20.90
3037;DHT22;1528;52.550;13.408;2022-10-17T13:57:35;25.60;21.00
3037;DHT22;1528;52.550;13.408;2022-10-17T14:00:22;25.70;20.60
3037;DHT22;1528;52.550;13.408;2022-10-17T14:03:07;25.70;20.80
3037;DHT22;1528;52.550;13.408;2022-10-17T14:06:05;25.70;20.90
3037;DHT22;1528;52.550;13.408;2022-10-17T14:08:56;25.70;20.60
3037;DHT22;1528;52.550;13.408;2022-10-17T14:11:43;25.70;20.90
3037;DHT22;1528;52.550;13.408;2022-10-17T14:14:40;25.60;21.00
3037;DHT22;1528;52.550;13.408;2022-10-17T14:17:31;25.50;21.00
3037;DHT22;1528;52.550;13.408;2022-10-17T14:20:18;25.50;21.00
3037;DHT22;1528;52.550;13.408;2022-10-17T14:23:29;25.50;21.00
3037;DHT22;1528;52.550;13.408;2022-10-17T14:26:16;25.40;21.40
3037;DHT22;1528;52.550;13.408;2022-10-17T14:29:04;25.40;21.30
3037;DHT22;1528;52.550;13.408;2022-10-17T14:31:57;25.40;21.20
3037;DHT22;1528;52.550;13.408;2022-10-17T14:34:43;25.50;20.80
3037;DHT22;1528;52.550;13.408;2022-10-17T14:37:36;25.40;21.10
3037;DHT22;1528;52.550;13.408;2022-10-17T14:40:25;25.40;20.90
3037;DHT22;1528;52.550;13.408;2022-10-17T14:43:19;25.40;21.20
3037;DHT22;1528;52.550;13.408;2022-10-17T14:46:05;25.20;21.50
3037;DHT22;1528;52.550;13.408;2022-10-17T14:48:53;25.30;21.40
3037;DHT22;1528;52.550;13.408;2022-10-17T14:51:39;25.20;21.50
3037;DHT22;1528;52.550;13.408;2022-10-17T14:54:25;24.90;22.10
3037;DHT22;1528;52.550;13.408;2022-10-17T14:57:18;24.70;22.60
3037;DHT22;1528;52.550;13.408;2022-10-17T15:00:04;24.60;22.80
3037;DHT22;1528;52.550;13.408;2022-10-17T15:02:51;24.60;22.70
3037;DHT22;1528;52.550;13.408;2022-10-17T15:05:36;24.50;22.80
3037;DHT22;1528;52.550;13.408;2022-10-17T15:08:23;24.60;22.80
3037;DHT22;1528;52.550;13.408;2022-10-17T15:11:10;24.50;22.80
3037;DHT22;1528;52.550;13.408;2022-10-17T15:13:57;24.40;23.10
3037;DHT22;1528;52.550;13.408;2022-10-17T15:16:42;24.40;23.10
3037;DHT22;1528;52.550;13.408;2022-10-17T15:19:28;24.30;23.20
3037;DHT22;1528;52.550;13.408;2022-10-17T15:22:13;24.30;23.30
3037;DHT22;1528;52.550;13.408;2022-10-17T15:24:59;24.20;23.50
3037;DHT22;1528;52.550;13.408;2022-10-17T15:27:45;24.20;23.70
3037;DHT22;1528;52.550;13.408;2022-10-17T15:30:34;24.20;23.70
3037;DHT22;1528;52.550;13.408;2022-10-17T15:33:20;24.10;23.90
3037;DHT22;1528;52.550;13.408;2022-10-17T15:36:23;24.00;24.00
3037;DHT22;1528;52.550;13.408;2022-10-17T15:39:09;23.90;24.10
3037;DHT22;1528;52.550;13.408;2022-10-17T15:41:54;23.80;24.40
3037;DHT22;1528;52.550;13.408;2022-10-17T15:44:40;23.70;24.70
3037;DHT22;1528;52.550;13.408;2022-10-17T15:47:29;23.60;24.60
3037;DHT22;1528;52.550;13.408;2022-10-17T15:50:16;23.50;24.90
3037;DHT22;1528;52.550;13.408;2022-10-17T15:53:04;23.50;25.70
3037;DHT22;1528;52.550;13.408;2022-10-17T15:55:49;23.40;25.20
3037;DHT22;1528;52.550;13.408;2022-10-17T15:58:37;23.30;25.40
3037;DHT22;1528;52.550;13.408;2022-10-17T16:01:26;23.20;25.50
3037;DHT22;1528;52.550;13.408;2022-10-17T16:04:13;23.10;25.70
3037;DHT22;1528;52.550;13.408;2022-10-17T16:06:59;23.00;25.90
3037;DHT22;1528;52.550;13.408;2022-10-17T16:09:45;22.90;26.40
3037;DHT22;1528;52.550;13.408;2022-10-17T16:12:31;22.90;26.50
3037;DHT22;1528;52.550;13.408;2022-10-17T16:15:22;22.80;26.70
3037;DHT22;1528;52.550;13.408;2022-10-17T16:18:08;22.60;26.80
3037;DHT22;1528;52.550;13.408;2022-10-17T16:20:55;22.60;26.90
3037;DHT22;1528;52.550;13.408;2022-10-17T16:23:41;22.50;27.00
3037;DHT22;1528;52.550;13.408;2022-10-17T16:26:27;22.40;27.20
3037;DHT22;1528;52.550;13.408;2022-10-17T16:29:12;22.30;27.30
3037;DHT22;1528;52.550;13.408;2022-10-17T16:31:58;22.30;27.60
3037;DHT22;1528;52.550;13.408;2022-10-17T16:34:43;22.20;27.60
3037;DHT22;1528;52.550;13.408;2022-10-17T16:37:30;22.20;27.60
3037;DHT22;1528;52.550;13.408;2022-10-17T16:40:16;22.20;27.70
3037;DHT22;1528;52.550;13.408;2022-10-17T16:43:02;22.20;27.60
3037;DHT22;1528;52.550;13.408;2022-10-17T16:45:47;22.20;27.60
3037;DHT22;1528;52.550;13.408;2022-10-17T16:48:33;22.20;27.60
3037;DHT22;1528;52.550;13.408;2022-10-17T16:51:19;22.10;27.60
3037;DHT22;1528;52.550;13.408;2022-10-17T16:54:08;22.10;27.70
3037;DHT22;1528;52.550;13.408;2022-10-17T16:56:54;22.10;27.60
3037;DHT22;1528;52.550;13.408;2022-10-17T16:59:40;22.00;27.60
3037;DHT22;1528;52.550;13.408;2022-10-17T17:02:26;22.00;27.70
3037;DHT22;1528;52.550;13.408;2022-10-17T17:05:11;21.90;27.70
3037;DHT22;1528;52.550;13.408;2022-10-17T17:07:57;21.90;27.70
3037;DHT22;1528;52.550;13.408;2022-10-17T17:10:45;21.90;27.60
3037;DHT22;1528;52.550;13.408;2022-10-17T17:13:30;21.90;27.60
3037;DHT22;1528;52.550;13.408;2022-10-17T17:16:18;21.90;27.70
3037;DHT22;1528;52.550;13.408;2022-10-17T17:19:06;21.80;27.90
3037;DHT22;1528;52.550;13.408;2022-10-17T17:21:52;21.70;27.80
3037;DHT22;1528;52.550;13.408;2022-10-17T17:24:38;21.70;27.90
3037;DHT22;1528;52.550;13.408;2022-10-17T17:27:26;21.70;28.10
3037;DHT22;1528;52.550;13.408;2022-10-17T17:30:11;21.60;28.00
3037;DHT22;1528;52.550;13.408;2022-10-17T17:32:57;21.60;28.00
3037;DHT22;1528;52.550;13.408;2022-10-17T17:35:43;21.60;28.10
3037;DHT22;1528;52.550;13.408;2022-10-17T17:38:30;21.50;28.20
3037;DHT22;1528;52.550;13.408;2022-10-17T17:41:17;21.50;28.50
3037;DHT22;1528;52.550;13.408;2022-10-17T17:44:05;21.40;28.50
3037;DHT22;1528;52.550;13.408;2022-10-17T17:46:50;21.40;28.50
3037;DHT22;1528;52.550;13.408;2022-10-17T17:49:36;21.30;28.60
3037;DHT22;1528;52.550;13.408;2022-10-17T17:52:21;21.30;28.90
3037;DHT22;1528;52.550;13.408;2022-10-17T17:55:08;21.20;29.00
3037;DHT22;1528;52.550;13.408;2022-10-17T17:57:53;21.20;29.00
3037;DHT22;1528;52.550;13.408;2022-10-17T18:00:40;21.10;29.10
3037;DHT22;1528;52.550;13.408;2022-10-17T18:03:26;21.20;29.10
3037;DHT22;1528;52.550;13.408;2022-10-17T18:06:12;21.10;29.10
3037;DHT22;1528;52.550;13.408;2022-10-17T18:08:58;21.10;29.20